createdAt,value
2023-02-03T00:01:42.160Z,58.00
2023-02-03T00:04:10.662Z,58.63
2023-02-03T00:06:38.958Z,58.45
2023-02-03T00:09:07.346Z,58.31
2023-02-03T00:11:35.653Z,58.27
2023-02-03T00:14:05.416Z,58.15
2023-02-03T00:16:35.327Z,58.68
2023-02-03T00:19:03.707Z,58.56
2023-02-03T00:21:31.941Z,58.47
2023-02-03T00:24:00.150Z,58.50
2023-02-03T00:26:28.725Z,58.52
2023-02-03T00:28:56.973Z,58.60
2023-02-03T00:31:26.296Z,58.30
2023-02-03T00:33:59.546Z,58.16
2023-02-03T00:36:28.301Z,58.49
2023-02-03T00:38:56.685Z,58.34
2023-02-03T00:41:25.302Z,58.09
2023-02-03T00:43:53.538Z,58.01
2023-02-03T00:46:21.754Z,57.92
2023-02-03T00:48:50.095Z,58.11
2023-02-03T00:51:19.831Z,58.37
2023-02-03T00:53:49.051Z,58.65
2023-02-03T00:56:17.294Z,58.38
2023-02-03T00:58:45.617Z,58.10
2023-02-03T01:01:13.939Z,58.06
2023-02-03T01:03:42.237Z,58.25
2023-02-03T01:06:14.798Z,58.15
2023-02-03T01:08:44.993Z,58.47
2023-02-03T01:11:17.150Z,58.45
2023-02-03T01:13:46.758Z,58.54
2023-02-03T01:16:17.959Z,58.62
2023-02-03T01:18:47.090Z,58.55
2023-02-03T01:21:18.511Z,58.73
2023-02-03T01:23:48.654Z,58.80
2023-02-03T01:26:19.984Z,58.50
2023-02-03T01:28:53.750Z,58.57
2023-02-03T01:31:25.023Z,58.53
2023-02-03T01:33:54.661Z,58.83
2023-02-03T01:36:26.025Z,58.49
2023-02-03T01:38:55.997Z,58.84
2023-02-03T01:41:28.773Z,58.97
2023-02-03T01:44:00.561Z,58.75
2023-02-03T01:46:34.585Z,58.62
2023-02-03T01:49:11.000Z,58.62
2023-02-03T01:51:42.492Z,58.47
2023-02-03T01:54:19.579Z,58.45
2023-02-03T01:56:53.614Z,58.51
2023-02-03T01:59:23.702Z,58.09
2023-02-03T02:01:53.461Z,58.29
2023-02-03T02:04:23.586Z,58.42
2023-02-03T02:06:52.143Z,58.53
2023-02-03T02:09:21.784Z,58.45
2023-02-03T02:11:49.992Z,58.54
2023-02-03T02:14:18.393Z,58.13
2023-02-03T02:16:56.634Z,58.01
2023-02-03T02:20:07.701Z,58.29
2023-02-03T02:22:48.654Z,58.29
2023-02-03T02:25:53.086Z,58.48
2023-02-03T02:28:54.443Z,58.55
2023-02-03T02:31:59.208Z,58.38
2023-02-03T02:34:46.231Z,58.42
2023-02-03T02:37:25.804Z,58.52
2023-02-03T02:40:01.854Z,58.36
2023-02-03T02:42:37.993Z,58.71
2023-02-03T02:45:13.436Z,58.48
2023-02-03T02:47:43.339Z,58.46
2023-02-03T02:50:19.659Z,58.04
2023-02-03T02:52:50.105Z,58.14
2023-02-03T02:55:24.703Z,58.14
2023-02-03T02:57:57.138Z,58.22
2023-02-03T03:00:26.777Z,58.06
2023-02-03T03:02:57.593Z,58.25
2023-02-03T03:05:27.438Z,58.32
2023-02-03T03:08:02.234Z,58.12
2023-02-03T03:10:33.764Z,58.24
2023-02-03T03:13:06.667Z,58.31
2023-02-03T03:15:36.143Z,57.96
2023-02-03T03:18:12.920Z,57.97
2023-02-03T03:20:44.339Z,58.29
2023-02-03T03:23:20.724Z,58.28
2023-02-03T03:25:55.589Z,58.25
2023-02-03T03:28:38.087Z,58.14
2023-02-03T03:31:06.554Z,58.47
2023-02-03T03:33:36.260Z,58.47
2023-02-03T03:36:13.342Z,58.41
2023-02-03T03:38:47.414Z,58.37
2023-02-03T03:41:23.804Z,58.26
2023-02-03T03:43:54.375Z,57.88
2023-02-03T03:46:27.644Z,57.97
2023-02-03T03:49:01.207Z,58.29
2023-02-03T03:51:35.341Z,57.98
2023-02-03T03:54:09.668Z,58.15
2023-02-03T03:56:45.207Z,58.20
2023-02-03T03:59:17.656Z,57.77
2023-02-03T04:01:46.726Z,57.92
2023-02-03T04:04:18.018Z,58.11
2023-02-03T04:06:46.229Z,57.86
2023-02-03T04:09:14.525Z,57.83
2023-02-03T04:12:00.099Z,57.72
2023-02-03T04:14:30.046Z,57.85
2023-02-03T04:16:58.566Z,58.17
2023-02-03T04:19:28.582Z,57.77
2023-02-03T04:21:56.823Z,58.06
2023-02-03T04:24:25.066Z,57.88
2023-02-03T04:26:53.524Z,58.07
2023-02-03T04:29:21.740Z,57.87
2023-02-03T04:31:50.099Z,57.84
2023-02-03T04:34:18.465Z,57.84
2023-02-03T04:36:48.106Z,57.90
2023-02-03T04:39:16.360Z,57.85
2023-02-03T04:41:44.638Z,57.77
2023-02-03T04:44:12.842Z,57.73
2023-02-03T04:46:41.085Z,58.10
2023-02-03T04:49:11.685Z,58.23
2023-02-03T04:51:40.011Z,58.21
2023-02-03T04:54:09.975Z,58.76
2023-02-03T04:56:38.963Z,58.48
2023-02-03T04:59:07.195Z,58.13
2023-02-03T05:01:35.602Z,58.31
2023-02-03T05:04:03.930Z,58.36
2023-02-03T05:06:32.868Z,58.07
2023-02-03T05:09:01.226Z,57.94
2023-02-03T05:11:31.124Z,57.89
2023-02-03T05:13:59.389Z,58.28
2023-02-03T05:16:27.846Z,58.47
2023-02-03T05:18:56.136Z,58.45
2023-02-03T05:21:24.376Z,58.33
2023-02-03T05:23:52.602Z,58.06
2023-02-03T05:26:20.825Z,57.95
2023-02-03T05:28:51.126Z,58.24
2023-02-03T05:31:20.751Z,57.83
2023-02-03T05:33:49.056Z,57.68
2023-02-03T05:36:17.316Z,57.78
2023-02-03T05:38:45.524Z,57.90
2023-02-03T05:41:31.785Z,57.94
2023-02-03T05:44:01.423Z,57.46
2023-02-03T05:46:29.674Z,57.66
2023-02-03T05:48:57.924Z,57.73
2023-02-03T05:51:26.175Z,57.84
2023-02-03T05:53:54.401Z,57.50
2023-02-03T05:56:22.632Z,57.76
2023-02-03T05:58:53.251Z,57.73
2023-02-03T06:01:22.955Z,57.48
2023-02-03T06:03:51.325Z,57.35
2023-02-03T06:06:20.066Z,57.76
2023-02-03T06:08:48.299Z,57.66
2023-02-03T06:11:16.577Z,57.26
2023-02-03T06:13:44.883Z,57.70
2023-02-03T06:16:13.175Z,57.63
2023-02-03T06:18:42.857Z,57.68
2023-02-03T06:21:11.096Z,57.59
2023-02-03T06:23:39.286Z,57.55
2023-02-03T06:26:07.529Z,57.46
2023-02-03T06:28:35.749Z,57.46
2023-02-03T06:31:04.056Z,57.46
2023-02-03T06:33:32.703Z,57.65
2023-02-03T06:36:02.354Z,57.43
2023-02-03T06:38:30.566Z,57.24
2023-02-03T06:40:58.858Z,57.59
2023-02-03T06:43:27.162Z,57.26
2023-02-03T06:45:55.434Z,57.27
2023-02-03T06:48:23.923Z,57.14
2023-02-03T06:50:52.187Z,57.22
2023-02-03T06:53:21.776Z,57.44
2023-02-03T06:55:49.999Z,57.12
2023-02-03T06:58:18.187Z,57.57
2023-02-03T07:00:46.442Z,57.50
2023-02-03T07:03:14.638Z,57.52
2023-02-03T07:05:42.888Z,57.56
2023-02-03T07:08:11.133Z,57.57
2023-02-03T07:10:41.840Z,57.33
2023-02-03T07:13:10.242Z,57.51
2023-02-03T07:15:38.607Z,57.60
2023-02-03T07:18:06.996Z,57.48
2023-02-03T07:20:35.239Z,57.53
2023-02-03T07:23:04.456Z,57.30
2023-02-03T07:25:33.030Z,57.57
2023-02-03T07:28:02.778Z,57.63
2023-02-03T07:30:31.291Z,57.71
2023-02-03T07:32:59.658Z,57.75
2023-02-03T07:35:28.230Z,57.55
2023-02-03T07:37:56.454Z,57.72
2023-02-03T07:40:24.837Z,57.90
2023-02-03T07:42:53.144Z,57.64
2023-02-03T07:45:24.806Z,57.57
2023-02-03T07:47:53.142Z,57.63
2023-02-03T07:50:21.463Z,57.44
2023-02-03T07:52:52.242Z,57.41
2023-02-03T07:55:20.582Z,57.39
2023-02-03T07:57:49.034Z,57.36
2023-02-03T08:00:18.995Z,57.36
2023-02-03T08:02:48.721Z,57.11
2023-02-03T08:05:18.426Z,57.28
2023-02-03T08:07:47.371Z,57.35
2023-02-03T08:10:17.933Z,57.28
2023-02-03T08:12:46.798Z,57.39
2023-02-03T08:15:15.858Z,57.21
2023-02-03T08:17:44.578Z,57.33
2023-02-03T08:20:14.557Z,57.21
2023-02-03T08:22:42.789Z,57.28
2023-02-03T08:25:11.965Z,57.29
2023-02-03T08:27:42.070Z,57.06
2023-02-03T08:30:15.014Z,57.12
2023-02-03T08:32:43.400Z,57.20
2023-02-03T08:35:13.014Z,57.08
2023-02-03T08:37:41.305Z,56.84
2023-02-03T08:40:12.070Z,57.03
2023-02-03T08:42:40.486Z,56.70
2023-02-03T08:45:09.917Z,56.89
2023-02-03T08:47:39.272Z,56.75
2023-02-03T08:50:09.565Z,56.88
2023-02-03T08:52:39.204Z,56.74
2023-02-03T08:55:08.130Z,56.83
2023-02-03T08:57:37.619Z,56.79
2023-02-03T09:00:07.708Z,56.46
2023-02-03T09:02:36.007Z,56.56
2023-02-03T09:05:04.667Z,56.68
2023-02-03T09:07:32.967Z,56.59
2023-02-03T09:10:02.667Z,56.42
2023-02-03T09:12:30.872Z,56.67
2023-02-03T09:14:59.287Z,56.36
2023-02-03T09:17:28.072Z,56.49
2023-02-03T09:19:56.383Z,56.54
2023-02-03T09:22:24.712Z,56.48
2023-02-03T09:24:53.033Z,56.48
2023-02-03T09:27:22.627Z,56.49
2023-02-03T09:29:50.864Z,56.51
2023-02-03T09:32:19.197Z,56.47
2023-02-03T09:34:47.399Z,56.32
2023-02-03T09:37:15.634Z,56.50
2023-02-03T09:39:43.877Z,56.51
2023-02-03T09:42:52.496Z,56.56
2023-02-03T09:45:27.284Z,56.30
2023-02-03T09:47:59.842Z,56.29
2023-02-03T09:50:32.745Z,56.62
2023-02-03T09:53:07.368Z,56.49
2023-02-03T09:55:40.492Z,56.37
2023-02-03T09:58:14.854Z,56.56
2023-02-03T10:00:46.000Z,56.47
2023-02-03T10:03:27.186Z,56.51
2023-02-03T10:06:09.537Z,56.57
2023-02-03T10:09:11.264Z,56.36
2023-02-03T10:12:12.103Z,56.50
2023-02-03T10:15:01.171Z,56.44
2023-02-03T10:17:34.816Z,56.33
2023-02-03T10:20:10.262Z,56.21
2023-02-03T10:22:45.945Z,56.31
2023-02-03T10:25:24.874Z,56.18
2023-02-03T10:27:58.576Z,56.08
2023-02-03T10:30:33.145Z,56.18
2023-02-03T10:33:10.897Z,56.06
2023-02-03T10:35:56.416Z,56.20
2023-02-03T10:38:50.939Z,56.08
2023-02-03T10:41:20.984Z,56.26
2023-02-03T10:43:52.811Z,56.18
2023-02-03T10:46:29.670Z,56.21
2023-02-03T10:48:58.551Z,56.14
2023-02-03T10:51:30.605Z,56.08
2023-02-03T10:53:59.106Z,56.02
2023-02-03T10:56:32.062Z,56.10
2023-02-03T10:59:02.173Z,56.28
2023-02-03T11:01:45.063Z,55.95
2023-02-03T11:04:28.055Z,55.80
2023-02-03T11:06:58.709Z,56.10
2023-02-03T11:09:34.195Z,55.67
2023-02-03T11:12:14.497Z,56.02
2023-02-03T11:14:45.176Z,55.72
2023-02-03T11:17:20.375Z,55.59
2023-02-03T11:19:51.070Z,55.71
2023-02-03T11:22:30.365Z,55.59
2023-02-03T11:24:59.793Z,55.62
2023-02-03T11:27:31.658Z,55.52
2023-02-03T11:30:15.624Z,55.59
2023-02-03T11:32:47.841Z,55.68
2023-02-03T11:35:19.922Z,55.71
2023-02-03T11:37:51.323Z,55.74
2023-02-03T11:40:28.666Z,55.77
2023-02-03T11:43:07.098Z,55.65
2023-02-03T11:45:42.334Z,55.38
2023-02-03T11:48:26.500Z,55.03
2023-02-03T11:51:03.907Z,55.01
2023-02-03T11:53:56.282Z,54.98
2023-02-03T11:56:50.600Z,54.91
2023-02-03T11:59:54.995Z,54.90
2023-02-03T12:03:03.913Z,54.89
2023-02-03T12:06:00.168Z,54.74
2023-02-03T12:08:54.353Z,54.66
2023-02-03T12:11:39.646Z,54.35
2023-02-03T12:14:30.011Z,54.58
2023-02-03T12:17:30.208Z,54.65
2023-02-03T12:20:19.722Z,54.46
2023-02-03T12:23:02.011Z,54.63
2023-02-03T12:25:45.594Z,54.40
2023-02-03T12:28:34.303Z,54.29
2023-02-03T12:31:10.156Z,54.49
2023-02-03T12:33:44.630Z,54.24
2023-02-03T12:36:19.491Z,54.15
2023-02-03T12:38:56.796Z,54.15
2023-02-03T12:41:30.399Z,54.12
2023-02-03T12:44:05.315Z,54.11
2023-02-03T12:46:41.166Z,54.08
2023-02-03T12:49:20.672Z,53.91
2023-02-03T12:51:53.332Z,54.06
2023-02-03T12:54:38.775Z,53.92
2023-02-03T12:57:21.126Z,53.74
2023-02-03T13:00:07.075Z,53.78
2023-02-03T13:02:51.324Z,53.92
2023-02-03T13:05:27.947Z,53.82
2023-02-03T13:08:08.851Z,53.78
2023-02-03T13:10:45.102Z,53.80
2023-02-03T13:13:19.041Z,53.73
2023-02-03T13:15:52.555Z,53.95
2023-02-03T13:18:29.429Z,53.72
2023-02-03T13:20:58.311Z,53.66
2023-02-03T13:23:26.998Z,53.74
2023-02-03T13:26:25.743Z,53.75
2023-02-03T13:29:15.389Z,53.77
2023-02-03T13:31:53.718Z,53.63
2023-02-03T13:34:48.415Z,53.74
2023-02-03T13:37:57.246Z,53.50
2023-02-03T13:40:39.045Z,53.61
2023-02-03T13:43:22.998Z,53.61
2023-02-03T13:46:01.007Z,53.63
2023-02-03T13:48:32.261Z,53.53
2023-02-03T13:51:08.733Z,53.60
2023-02-03T13:53:40.421Z,53.24
2023-02-03T13:56:16.468Z,53.18
2023-02-03T13:59:02.932Z,53.16
2023-02-03T14:01:38.573Z,53.15
2023-02-03T14:04:09.118Z,52.96
2023-02-03T14:07:02.839Z,52.53
2023-02-03T14:09:49.675Z,52.68
2023-02-03T14:13:02.320Z,52.89
2023-02-03T14:15:36.538Z,52.82
2023-02-03T14:18:33.857Z,52.66
2023-02-03T14:21:16.362Z,52.74
2023-02-03T14:24:03.932Z,52.70
2023-02-03T14:26:38.662Z,52.72
2023-02-03T14:29:09.350Z,52.70
2023-02-03T14:31:59.951Z,52.70
2023-02-03T14:34:42.695Z,52.43
2023-02-03T14:37:24.701Z,52.66
2023-02-03T14:40:31.933Z,52.73
2023-02-03T14:43:26.519Z,52.77
2023-02-03T14:46:23.010Z,52.96
2023-02-03T14:49:13.014Z,53.18
2023-02-03T14:52:06.150Z,53.16
2023-02-03T14:55:05.137Z,53.09
2023-02-03T14:57:41.715Z,53.09
2023-02-03T15:00:31.765Z,52.76
2023-02-03T15:03:30.315Z,53.07
2023-02-03T15:06:03.569Z,52.75
2023-02-03T15:08:44.571Z,52.78
2023-02-03T15:11:35.089Z,52.88
2023-02-03T15:14:22.652Z,52.85
2023-02-03T15:16:57.542Z,53.03
2023-02-03T15:19:29.853Z,52.78
2023-02-03T15:21:59.588Z,52.82
2023-02-03T15:24:36.220Z,52.83
2023-02-03T15:27:04.745Z,52.99
2023-02-03T15:29:36.462Z,52.89
2023-02-03T15:32:11.407Z,53.09
2023-02-03T15:34:44.274Z,53.10
2023-02-03T15:37:19.939Z,53.22
2023-02-03T15:40:02.309Z,53.31
2023-02-03T15:42:35.627Z,53.29
2023-02-03T15:45:09.724Z,53.46
2023-02-03T15:47:43.757Z,53.89
2023-02-03T15:50:28.809Z,53.79
2023-02-03T15:53:05.812Z,53.77
2023-02-03T15:55:39.258Z,53.83
2023-02-03T15:58:08.204Z,53.95
2023-02-03T16:00:40.790Z,53.89
2023-02-03T16:03:21.517Z,54.18
2023-02-03T16:05:50.587Z,54.47
2023-02-03T16:08:40.215Z,54.70
2023-02-03T16:11:31.052Z,54.96
2023-02-03T16:14:01.466Z,54.80
2023-02-03T16:16:34.440Z,54.73
2023-02-03T16:19:05.542Z,54.71
2023-02-03T16:21:37.285Z,54.74
2023-02-03T16:24:07.899Z,54.56
2023-02-03T16:26:38.513Z,54.61
2023-02-03T16:29:33.774Z,54.60
2023-02-03T16:32:19.685Z,54.66
2023-02-03T16:35:06.123Z,54.56
2023-02-03T16:37:54.284Z,54.65
2023-02-03T16:40:42.606Z,54.68
2023-02-03T16:43:32.209Z,54.65
2023-02-03T16:46:19.494Z,54.70
2023-02-03T16:49:05.229Z,54.77
2023-02-03T16:51:40.911Z,54.89
2023-02-03T16:54:14.167Z,54.72
2023-02-03T16:56:43.931Z,54.79
2023-02-03T16:59:12.422Z,54.90
2023-02-03T17:01:41.200Z,55.13
2023-02-03T17:04:11.012Z,55.12
2023-02-03T17:06:39.377Z,54.96
2023-02-03T17:09:07.859Z,54.83
2023-02-03T17:11:36.099Z,55.04
2023-02-03T17:14:05.740Z,55.01
2023-02-03T17:16:34.105Z,55.04
2023-02-03T17:19:02.566Z,55.05
2023-02-03T17:21:31.234Z,55.05
2023-02-03T17:24:00.535Z,55.20
2023-02-03T17:26:28.961Z,55.21
2023-02-03T17:29:02.915Z,55.12
2023-02-03T17:31:33.476Z,55.06
2023-02-03T17:34:01.778Z,55.26
2023-02-03T17:36:30.215Z,55.24
2023-02-03T17:55:31.589Z,55.45
2023-02-03T17:58:00.167Z,55.68
2023-02-03T18:00:28.765Z,55.53
2023-02-03T18:02:58.474Z,55.22
2023-02-03T18:05:26.888Z,55.45
2023-02-03T18:07:55.177Z,55.69
2023-02-03T18:10:23.449Z,55.45
2023-02-03T18:12:51.734Z,55.17
2023-02-03T18:15:20.211Z,55.59
2023-02-03T18:17:48.513Z,55.59
2023-02-03T18:20:18.486Z,55.98
2023-02-03T18:22:46.753Z,55.63
2023-02-03T18:25:17.208Z,55.72
2023-02-03T18:27:45.612Z,55.62
2023-02-03T18:30:17.622Z,55.65
2023-02-03T18:32:47.137Z,55.59
2023-02-03T18:35:18.166Z,55.83
2023-02-03T18:37:46.478Z,55.89
2023-02-03T18:40:14.957Z,56.00
2023-02-03T18:42:43.238Z,56.02
2023-02-03T18:45:12.824Z,55.97
2023-02-03T18:47:41.083Z,56.08
2023-02-03T18:50:10.147Z,56.48
2023-02-03T18:52:39.789Z,56.44
2023-02-03T18:55:09.443Z,56.55
2023-02-03T18:57:37.685Z,56.84
2023-02-03T19:00:08.387Z,56.72
2023-02-03T19:02:36.732Z,56.85
2023-02-03T19:05:05.477Z,56.74
2023-02-03T19:07:33.773Z,56.99
2023-02-03T19:10:03.443Z,56.87
2023-02-03T19:12:31.723Z,57.19
2023-02-03T19:14:59.994Z,57.40
2023-02-03T19:17:28.337Z,57.31
2023-02-03T19:19:56.602Z,57.26
2023-02-03T19:22:24.849Z,57.49
2023-02-03T19:24:53.161Z,57.85
2023-02-03T19:27:22.846Z,57.69
2023-02-03T19:29:51.137Z,57.70
2023-02-03T19:32:19.542Z,57.60
2023-02-03T19:34:47.864Z,57.92
2023-02-03T19:37:16.228Z,57.94
2023-02-03T19:39:45.042Z,57.91
2023-02-03T19:42:13.346Z,57.75
2023-02-03T19:44:43.045Z,57.89
2023-02-03T19:47:11.316Z,57.56
2023-02-03T19:49:39.631Z,57.81
2023-02-03T19:52:10.148Z,57.84
2023-02-03T19:54:38.408Z,57.65
2023-02-03T19:57:06.738Z,57.63
2023-02-03T19:59:35.167Z,58.14
2023-02-03T20:02:13.634Z,58.17
2023-02-03T20:04:42.598Z,58.18
2023-02-03T20:07:11.030Z,58.14
2023-02-03T20:09:39.282Z,58.18
2023-02-03T20:12:07.720Z,58.34
2023-02-03T20:14:36.054Z,58.62
2023-02-03T20:17:07.522Z,58.91
2023-02-03T20:19:35.823Z,58.77
2023-02-03T20:22:04.345Z,58.61
2023-02-03T20:24:32.603Z,58.51
2023-02-03T20:27:00.919Z,58.74
2023-02-03T20:29:29.229Z,58.83
2023-02-03T20:31:58.651Z,58.51
2023-02-03T20:34:28.770Z,58.48
2023-02-03T20:36:58.551Z,58.46
2023-02-03T20:39:27.037Z,58.66
2023-02-03T20:41:55.931Z,58.65
2023-02-03T20:44:24.196Z,58.88
2023-02-03T20:46:53.392Z,58.95
2023-02-03T20:49:21.849Z,58.76
2023-02-03T20:51:51.659Z,58.83
2023-02-03T20:54:22.569Z,58.77
2023-02-03T20:56:50.942Z,58.90
2023-02-03T20:59:20.715Z,58.82
2023-02-03T21:01:50.580Z,58.92
2023-02-03T21:04:37.942Z,58.95
2023-02-03T21:07:15.013Z,59.17
2023-02-03T21:09:43.445Z,59.10
2023-02-03T21:12:13.570Z,59.33
2023-02-03T21:14:44.974Z,59.16
2023-02-03T21:17:19.160Z,59.23
2023-02-03T21:19:48.141Z,58.81
2023-02-03T21:22:24.478Z,59.11
2023-02-03T21:24:56.347Z,59.11
2023-02-03T21:27:28.593Z,58.97
2023-02-03T21:29:58.097Z,59.13
2023-02-03T21:32:34.823Z,59.02
2023-02-03T21:35:03.127Z,59.16
2023-02-03T21:37:43.192Z,58.95
2023-02-03T21:40:27.330Z,58.79
2023-02-03T21:42:56.578Z,58.92
2023-02-03T21:45:36.283Z,58.61
2023-02-03T21:48:30.903Z,58.68
2023-02-03T21:51:03.600Z,58.71
2023-02-03T21:53:36.097Z,58.67
2023-02-03T21:56:19.295Z,58.67
2023-02-03T21:58:48.773Z,58.23
2023-02-03T22:01:18.388Z,58.32
2023-02-03T22:03:50.256Z,58.18
2023-02-03T22:06:28.831Z,58.03
2023-02-03T22:08:59.881Z,58.04
2023-02-03T22:11:30.438Z,57.95
2023-02-03T22:13:59.023Z,57.98
2023-02-03T22:16:29.084Z,58.03
2023-02-03T22:18:57.392Z,58.23
2023-02-03T22:21:26.133Z,58.27
2023-02-03T22:23:54.462Z,58.29
2023-02-03T22:26:24.154Z,58.24
2023-02-03T22:28:52.430Z,58.03
2023-02-03T22:31:21.513Z,58.12
2023-02-03T22:33:50.070Z,58.45
2023-02-03T22:36:18.485Z,58.34
2023-02-03T22:38:46.869Z,58.43
2023-02-03T22:41:15.311Z,58.47
2023-02-03T22:43:45.160Z,58.38
2023-02-03T22:46:13.614Z,58.16
2023-02-03T22:48:41.999Z,58.15
2023-02-03T22:51:10.353Z,57.97
2023-02-03T22:53:39.855Z,57.75
2023-02-03T22:56:08.538Z,57.73
2023-02-03T22:58:36.864Z,57.54
2023-02-03T23:01:06.835Z,57.68
2023-02-03T23:03:35.200Z,57.43
2023-02-03T23:06:03.582Z,57.35
2023-02-03T23:08:32.354Z,57.19
2023-02-03T23:11:00.808Z,56.92
2023-02-03T23:13:29.144Z,56.87
2023-02-03T23:15:57.616Z,56.80
2023-02-03T23:18:27.579Z,56.66
2023-02-03T23:20:55.929Z,56.28
2023-02-03T23:23:24.306Z,56.30
2023-02-03T23:25:52.614Z,56.18
2023-02-03T23:28:21.046Z,56.01
2023-02-03T23:30:49.438Z,55.90
2023-02-03T23:33:17.783Z,55.62
2023-02-03T23:35:46.584Z,55.32
2023-02-03T23:38:16.175Z,55.07
2023-02-03T23:40:45.816Z,54.96
2023-02-03T23:43:14.242Z,54.65
2023-02-03T23:45:42.799Z,54.52
2023-02-03T23:48:11.143Z,54.23
2023-02-03T23:50:39.695Z,54.08
2023-02-03T23:53:09.524Z,54.20
2023-02-03T23:55:37.825Z,54.13
2023-02-03T23:58:06.207Z,54.08
